createdAt,value
2018-09-05T00:00:23.244Z,43.28
2018-09-05T00:02:49.981Z,43.25
2018-09-05T00:05:16.690Z,43.29
2018-09-05T00:07:43.337Z,43.38
2018-09-05T00:10:10.008Z,43.50
2018-09-05T00:12:36.703Z,43.40
2018-09-05T00:15:03.435Z,43.39
2018-09-05T00:17:33.196Z,43.46
2018-09-05T00:20:02.186Z,43.37
2018-09-05T00:22:27.051Z,43.47
2018-09-05T00:24:53.690Z,43.45
2018-09-05T00:27:20.411Z,43.54
2018-09-05T00:29:47.098Z,43.54
2018-09-05T00:32:13.785Z,43.51
2018-09-05T00:34:40.498Z,43.52
2018-09-05T00:37:07.217Z,43.49
2018-09-05T00:39:34.028Z,43.58
2018-09-05T00:42:01.932Z,43.58
2018-09-05T00:44:27.392Z,43.68
2018-09-05T00:46:54.123Z,43.68
2018-09-05T00:49:22.170Z,43.63
2018-09-05T00:51:47.569Z,43.59
2018-09-05T00:54:14.296Z,43.66
2018-09-05T00:56:42.259Z,43.73
2018-09-05T00:59:07.825Z,43.61
2018-09-05T01:01:34.514Z,43.70
2018-09-05T01:04:01.164Z,43.75
2018-09-05T01:06:27.833Z,43.54
2018-09-05T01:08:54.540Z,43.57
2018-09-05T01:11:21.294Z,43.63
2018-09-05T01:13:51.048Z,43.65
2018-09-05T01:16:17.736Z,43.75
2018-09-05T01:18:47.425Z,43.64
2018-09-05T01:21:14.092Z,43.72
2018-09-05T01:23:40.817Z,43.64
2018-09-05T01:26:07.474Z,43.66
2018-09-05T01:28:34.179Z,43.56
2018-09-05T01:31:00.843Z,43.64
2018-09-05T01:33:27.498Z,43.59
2018-09-05T01:35:54.202Z,43.61
2018-09-05T01:38:20.863Z,43.71
2018-09-05T01:40:47.605Z,43.62
2018-09-05T01:43:14.286Z,43.62
2018-09-05T01:45:40.950Z,43.68
2018-09-05T01:48:07.652Z,43.75
2018-09-05T01:50:36.311Z,43.66
2018-09-05T01:53:01.001Z,43.64
2018-09-05T01:55:27.704Z,43.70
2018-09-05T01:57:54.477Z,43.70
2018-09-05T02:00:21.184Z,43.76
2018-09-05T02:02:47.869Z,43.67
2018-09-05T02:05:14.520Z,43.74
2018-09-05T02:07:41.185Z,43.68
2018-09-05T02:10:07.870Z,43.75
2018-09-05T02:12:34.565Z,43.69
2018-09-05T02:15:01.330Z,43.69
2018-09-05T02:17:27.927Z,43.73
2018-09-05T02:19:54.574Z,43.73
2018-09-05T02:22:21.361Z,43.84
2018-09-05T02:24:48.075Z,43.74
2018-09-05T02:27:14.771Z,43.86
2018-09-05T02:29:41.512Z,43.87
2018-09-05T02:32:08.171Z,43.82
2018-09-05T02:34:34.828Z,43.82
2018-09-05T02:37:01.542Z,43.79
2018-09-05T02:39:28.287Z,43.85
2018-09-05T02:41:54.939Z,43.88
2018-09-05T02:44:21.611Z,43.92
2018-09-05T02:46:48.264Z,43.87
2018-09-05T02:49:14.960Z,43.89
2018-09-05T02:51:41.831Z,43.87
2018-09-05T02:54:08.623Z,43.86
2018-09-05T02:56:35.378Z,43.97
2018-09-05T02:59:02.090Z,43.88
2018-09-05T03:01:28.855Z,43.96
2018-09-05T03:03:55.517Z,44.04
2018-09-05T03:06:22.211Z,44.00
2018-09-05T03:08:48.869Z,43.98
2018-09-05T03:11:15.542Z,44.05
2018-09-05T03:13:42.259Z,44.05
2018-09-05T03:16:11.092Z,44.10
2018-09-05T03:18:36.957Z,44.11
2018-09-05T03:21:02.336Z,44.12
2018-09-05T03:23:29.003Z,44.19
2018-09-05T03:25:57.031Z,44.19
2018-09-05T03:28:22.349Z,44.09
2018-09-05T03:30:49.298Z,44.18
2018-09-05T03:33:17.333Z,44.13
2018-09-05T03:35:43.751Z,44.17
2018-09-05T03:38:09.323Z,44.21
2018-09-05T03:40:36.048Z,44.08
2018-09-05T03:43:02.737Z,44.11
2018-09-05T03:45:29.471Z,44.11
2018-09-05T03:47:56.293Z,43.93
2018-09-05T03:50:23.036Z,44.05
2018-09-05T03:52:49.723Z,43.93
2018-09-05T03:55:19.582Z,43.69
2018-09-05T03:57:46.260Z,43.95
2018-09-05T04:00:12.988Z,44.15
2018-09-05T04:02:39.731Z,44.13
2018-09-05T04:05:06.366Z,44.30
2018-09-05T04:07:33.139Z,44.28
2018-09-05T04:09:59.896Z,44.32
2018-09-05T04:12:26.600Z,43.85
2018-09-05T04:14:53.299Z,44.07
2018-09-05T04:17:19.947Z,43.86
2018-09-05T04:19:46.663Z,44.00
2018-09-05T04:22:13.413Z,44.12
2018-09-05T04:24:40.164Z,44.07
2018-09-05T04:27:06.799Z,44.15
2018-09-05T04:29:33.484Z,44.10
2018-09-05T04:32:03.386Z,44.08
2018-09-05T04:34:30.109Z,44.17
2018-09-05T04:36:56.775Z,44.08
2018-09-05T04:39:23.477Z,44.06
2018-09-05T04:41:50.117Z,44.17
2018-09-05T04:44:16.810Z,44.14
2018-09-05T04:46:47.402Z,43.97
2018-09-05T04:49:12.973Z,44.13
2018-09-05T04:51:39.624Z,44.14
2018-09-05T04:54:06.266Z,43.77
2018-09-05T04:56:32.902Z,43.65
2018-09-05T04:58:59.540Z,43.67
2018-09-05T05:01:26.168Z,43.47
2018-09-05T05:03:52.896Z,43.15
2018-09-05T05:06:19.461Z,43.08
2018-09-05T05:08:46.115Z,43.05
2018-09-05T05:11:12.766Z,42.83
2018-09-05T05:13:39.478Z,42.74
2018-09-05T05:16:06.172Z,42.54
2018-09-05T05:18:34.159Z,42.60
2018-09-05T05:20:59.743Z,42.41
2018-09-05T05:23:26.410Z,42.26
2018-09-05T05:25:53.135Z,42.44
2018-09-05T05:28:19.782Z,42.10
2018-09-05T05:30:46.510Z,41.96
2018-09-05T05:33:13.154Z,41.95
2018-09-05T05:35:50.058Z,42.42
2018-09-05T05:38:16.905Z,42.09
2018-09-05T05:40:43.531Z,42.06
2018-09-05T05:43:10.419Z,41.91
2018-09-05T05:45:37.292Z,41.91
2018-09-05T05:48:03.936Z,42.13
2018-09-05T05:50:30.574Z,41.11
2018-09-05T05:52:57.250Z,41.96
2018-09-05T05:55:24.974Z,41.32
2018-09-05T05:57:51.680Z,41.94
2018-09-05T06:00:18.332Z,41.80
2018-09-05T06:02:44.955Z,41.83
2018-09-05T06:05:11.600Z,42.16
2018-09-05T06:07:39.588Z,42.47
2018-09-05T06:10:04.898Z,42.55
2018-09-05T06:12:31.616Z,41.85
2018-09-05T06:14:58.225Z,42.60
2018-09-05T06:17:24.862Z,42.77
2018-09-05T06:19:51.613Z,42.58
2018-09-05T06:22:18.265Z,42.76
2018-09-05T06:24:46.289Z,42.60
2018-09-05T06:27:11.627Z,42.64
2018-09-05T06:29:40.613Z,42.74
2018-09-05T06:32:04.992Z,42.85
2018-09-05T06:34:31.660Z,42.45
2018-09-05T06:36:58.313Z,42.68
2018-09-05T06:39:24.960Z,42.46
2018-09-05T06:41:51.610Z,42.56
2018-09-05T06:44:18.402Z,42.58
2018-09-05T06:46:45.171Z,42.45
2018-09-05T06:49:11.887Z,42.56
2018-09-05T06:51:38.583Z,42.37
2018-09-05T06:54:05.662Z,42.54
2018-09-05T06:56:33.682Z,42.64
2018-09-05T06:58:59.046Z,42.54
2018-09-05T07:01:25.694Z,42.48
2018-09-05T07:03:52.416Z,42.55
2018-09-05T07:06:19.037Z,42.55
2018-09-05T07:08:45.724Z,42.40
2018-09-05T07:11:12.389Z,42.40
2018-09-05T07:13:39.045Z,42.52
2018-09-05T07:16:05.680Z,42.41
2018-09-05T07:18:32.327Z,42.35
2018-09-05T07:21:05.680Z,42.22
2018-09-05T07:23:25.647Z,42.41
2018-09-05T07:25:52.381Z,42.23
2018-09-05T07:28:22.432Z,42.58
2018-09-05T07:30:49.093Z,42.43
2018-09-05T07:33:15.741Z,42.26
2018-09-05T07:35:42.468Z,41.98
2018-09-05T07:38:09.182Z,42.25
2018-09-05T07:40:37.196Z,42.46
2018-09-05T07:43:07.676Z,42.82
2018-09-05T07:45:39.437Z,42.50
2018-09-05T07:48:06.178Z,42.64
2018-09-05T07:50:32.930Z,42.51
2018-09-05T07:53:01.645Z,42.57
2018-09-05T07:55:26.466Z,41.89
2018-09-05T07:57:53.104Z,41.13
2018-09-05T08:00:19.782Z,41.01
2018-09-05T08:02:46.448Z,40.55
2018-09-05T08:05:13.095Z,40.44
2018-09-05T08:07:39.785Z,39.93
2018-09-05T08:10:06.432Z,39.71
2018-09-05T08:12:33.261Z,39.46
2018-09-05T08:15:00.004Z,39.68
2018-09-05T08:17:26.674Z,39.28
2018-09-05T08:19:53.362Z,38.96
2018-09-05T08:22:20.116Z,39.04
2018-09-05T08:24:46.804Z,38.80
2018-09-05T08:27:13.478Z,38.69
2018-09-05T08:29:40.137Z,38.25
2018-09-05T08:32:06.806Z,38.60
2018-09-05T08:34:33.504Z,38.11
2018-09-05T08:37:00.444Z,37.95
2018-09-05T08:39:28.588Z,38.36
2018-09-05T08:41:56.200Z,37.90
2018-09-05T08:44:22.927Z,37.66
2018-09-05T08:46:50.910Z,37.88
2018-09-05T08:49:16.238Z,37.14
2018-09-05T08:51:42.849Z,36.99
2018-09-05T08:54:09.536Z,37.91
2018-09-05T08:56:36.198Z,38.63
2018-09-05T08:59:02.950Z,38.42
2018-09-05T09:01:29.576Z,38.56
2018-09-05T09:03:56.237Z,38.57
2018-09-05T09:06:22.885Z,38.59
2018-09-05T09:08:49.577Z,38.78
2018-09-05T09:11:16.318Z,38.38
2018-09-05T09:13:42.994Z,38.28
2018-09-05T09:16:09.668Z,37.96
2018-09-05T09:18:36.277Z,38.05
2018-09-05T09:21:02.970Z,37.87
2018-09-05T09:23:31.017Z,37.93
2018-09-05T09:25:56.389Z,37.62
2018-09-05T09:28:23.158Z,37.82
2018-09-05T09:30:52.387Z,38.56
2018-09-05T09:33:19.040Z,39.18
2018-09-05T09:35:45.693Z,39.49
2018-09-05T09:38:12.371Z,39.63
2018-09-05T09:40:39.087Z,38.98
2018-09-05T09:43:05.730Z,38.83
2018-09-05T09:45:32.366Z,38.75
2018-09-05T09:47:59.080Z,39.80
2018-09-05T09:50:25.705Z,40.84
2018-09-05T09:52:52.441Z,41.49
2018-09-05T09:55:19.137Z,41.05
2018-09-05T09:57:48.663Z,40.68
2018-09-05T10:00:15.319Z,40.74
2018-09-05T10:02:41.994Z,40.45
2018-09-05T10:05:08.641Z,41.10
2018-09-05T10:07:35.326Z,42.09
2018-09-05T10:10:02.219Z,41.77
2018-09-05T10:12:31.833Z,41.22
2018-09-05T10:14:58.657Z,40.81
2018-09-05T10:17:28.322Z,40.52
2018-09-05T10:19:55.617Z,40.44
2018-09-05T10:22:22.262Z,40.24
2018-09-05T10:24:48.911Z,39.71
2018-09-05T10:27:15.558Z,39.24
2018-09-05T10:29:42.210Z,39.31
2018-09-05T10:32:10.696Z,39.17
2018-09-05T10:34:35.531Z,38.83
2018-09-05T10:37:02.209Z,38.71
2018-09-05T10:39:28.890Z,38.52
2018-09-05T10:41:55.628Z,38.49
2018-09-05T10:44:22.418Z,38.16
2018-09-05T10:46:48.970Z,38.16
2018-09-05T10:49:15.653Z,38.43
2018-09-05T10:51:42.333Z,38.42
2018-09-05T10:54:08.939Z,37.99
2018-09-05T10:56:35.569Z,37.99
2018-09-05T10:59:02.275Z,37.50
2018-09-05T11:01:28.915Z,37.66
2018-09-05T11:03:55.613Z,37.69
2018-09-05T11:06:22.300Z,37.69
2018-09-05T11:08:48.916Z,37.70
2018-09-05T11:11:15.661Z,37.78
2018-09-05T11:13:42.363Z,37.88
2018-09-05T11:16:08.967Z,37.83
2018-09-05T11:18:35.693Z,38.31
2018-09-05T11:21:02.384Z,38.29
2018-09-05T11:23:29.058Z,38.89
2018-09-05T11:25:55.753Z,39.09
2018-09-05T11:28:22.410Z,39.35
2018-09-05T11:30:49.065Z,39.37
2018-09-05T11:33:15.706Z,39.19
2018-09-05T11:35:42.387Z,39.19
2018-09-05T11:38:15.226Z,40.24
2018-09-05T11:40:41.851Z,39.64
2018-09-05T11:43:08.546Z,40.16
2018-09-05T11:45:35.207Z,40.11
2018-09-05T11:48:01.882Z,39.43
2018-09-05T11:50:28.544Z,39.92
2018-09-05T11:52:57.491Z,40.18
2018-09-05T11:55:22.362Z,39.69
2018-09-05T11:57:49.053Z,39.74
2018-09-05T12:00:18.768Z,39.83
2018-09-05T12:02:46.831Z,39.65
2018-09-05T12:05:12.093Z,39.14
2018-09-05T12:07:40.289Z,39.23
2018-09-05T12:10:07.456Z,39.33
2018-09-05T12:12:34.112Z,38.79
2018-09-05T12:15:00.760Z,39.16
2018-09-05T12:17:27.406Z,38.56
2018-09-05T12:19:57.189Z,38.18
2018-09-05T12:22:24.039Z,38.52
2018-09-05T12:24:50.682Z,37.78
2018-09-05T12:27:17.397Z,37.96
2018-09-05T12:29:44.013Z,38.01
2018-09-05T12:32:10.765Z,38.25
2018-09-05T12:34:38.757Z,37.85
2018-09-05T12:37:04.135Z,37.89
2018-09-05T12:39:30.750Z,37.96
2018-09-05T12:41:57.428Z,37.71
2018-09-05T12:44:24.041Z,37.95
2018-09-05T12:46:50.752Z,38.37
2018-09-05T12:49:17.447Z,38.66
2018-09-05T12:51:44.129Z,37.84
2018-09-05T12:54:10.788Z,37.81
2018-09-05T12:56:38.783Z,37.39
2018-09-05T12:59:04.159Z,37.99
2018-09-05T13:01:30.874Z,38.55
2018-09-05T13:03:59.809Z,37.61
2018-09-05T13:06:24.357Z,37.64
2018-09-05T13:08:51.039Z,38.25
2018-09-05T13:11:17.725Z,37.70
2018-09-05T13:13:44.412Z,37.87
2018-09-05T13:16:11.045Z,37.26
2018-09-05T13:18:37.813Z,37.04
2018-09-05T13:21:04.419Z,37.54
2018-09-05T13:23:31.252Z,37.18
2018-09-05T13:25:57.914Z,36.73
2018-09-05T13:28:24.632Z,36.72
2018-09-05T13:30:51.492Z,36.72
2018-09-05T13:33:18.197Z,36.59
2018-09-05T13:35:45.007Z,36.77
2018-09-05T13:38:11.645Z,37.74
2018-09-05T13:40:41.270Z,38.43
2018-09-05T13:43:10.385Z,38.89
2018-09-05T13:45:34.848Z,38.81
2018-09-05T13:48:01.566Z,38.24
2018-09-05T13:50:28.495Z,38.67
2018-09-05T13:52:55.160Z,39.16
2018-09-05T13:55:21.807Z,38.41
2018-09-05T13:57:49.609Z,38.40
2018-09-05T14:00:16.263Z,37.53
2018-09-05T14:02:47.924Z,37.37
2018-09-05T14:05:13.317Z,37.97
2018-09-05T14:07:39.972Z,38.70
2018-09-05T14:10:06.723Z,38.82
2018-09-05T14:12:33.402Z,39.24
2018-09-05T14:15:00.054Z,38.54
2018-09-05T14:17:26.691Z,38.53
2018-09-05T14:19:53.395Z,38.62
2018-09-05T14:22:20.053Z,38.24
2018-09-05T14:24:46.784Z,37.73
2018-09-05T14:27:13.420Z,38.76
2018-09-05T14:29:40.104Z,39.57
2018-09-05T14:32:08.354Z,39.78
2018-09-05T14:34:33.395Z,39.26
2018-09-05T14:37:00.082Z,38.70
2018-09-05T14:39:26.845Z,38.51
2018-09-05T14:41:53.583Z,38.23
2018-09-05T14:44:20.323Z,37.84
2018-09-05T14:46:47.093Z,37.94
2018-09-05T14:49:13.737Z,37.79
2018-09-05T14:51:40.408Z,37.91
2018-09-05T14:54:07.170Z,37.90
2018-09-05T14:56:37.064Z,37.37
2018-09-05T14:59:03.703Z,37.56
2018-09-05T15:01:33.139Z,38.44
2018-09-05T15:03:59.877Z,38.63
2018-09-05T15:06:26.552Z,38.99
2018-09-05T15:08:53.205Z,38.40
2018-09-05T15:11:23.095Z,38.11
2018-09-05T15:13:49.874Z,37.86
2018-09-05T15:16:16.554Z,37.68
2018-09-05T15:18:43.224Z,37.65
2018-09-05T15:21:09.867Z,37.55
2018-09-05T15:23:36.517Z,37.76
2018-09-05T15:26:03.183Z,37.73
2018-09-05T15:28:31.151Z,38.97
2018-09-05T15:30:56.504Z,39.17
2018-09-05T15:33:23.159Z,38.63
2018-09-05T15:35:49.823Z,38.37
2018-09-05T15:38:16.532Z,38.02
2018-09-05T15:40:43.240Z,37.97
2018-09-05T15:43:09.833Z,37.88
2018-09-05T15:45:36.470Z,38.01
2018-09-05T15:48:03.128Z,37.96
2018-09-05T15:50:29.778Z,37.94
2018-09-05T15:52:56.524Z,37.94
2018-09-05T15:55:23.199Z,38.10
2018-09-05T15:57:50.137Z,38.02
2018-09-05T16:00:16.769Z,38.14
2018-09-05T16:02:43.513Z,38.02
2018-09-05T16:05:10.251Z,38.07
2018-09-05T16:07:37.933Z,38.01
2018-09-05T16:10:04.557Z,38.12
2018-09-05T16:12:31.207Z,38.08
2018-09-05T16:14:57.904Z,37.96
2018-09-05T16:17:24.534Z,37.95
2018-09-05T16:19:51.174Z,38.07
2018-09-05T16:22:17.821Z,38.09
2018-09-05T16:24:44.568Z,38.02
2018-09-05T16:27:13.825Z,38.16
2018-09-05T16:29:40.489Z,38.21
2018-09-05T16:32:07.129Z,38.14
2018-09-05T16:34:33.790Z,38.17
2018-09-05T16:37:00.394Z,38.16
2018-09-05T16:39:27.044Z,38.20
2018-09-05T16:41:53.687Z,38.26
2018-09-05T16:44:21.431Z,38.32
2018-09-05T16:46:47.102Z,38.18
2018-09-05T16:49:13.723Z,38.34
2018-09-05T16:51:40.360Z,38.30
2018-09-05T16:54:07.838Z,38.26
2018-09-05T16:56:35.842Z,38.37
2018-09-05T16:59:01.608Z,38.46
2018-09-05T17:01:28.304Z,38.39
2018-09-05T17:03:55.051Z,38.35
2018-09-05T17:06:21.685Z,38.51
2018-09-05T17:08:48.455Z,38.51
2018-09-05T17:11:15.196Z,38.53
2018-09-05T17:13:41.781Z,38.58
2018-09-05T17:16:08.421Z,38.50
2018-09-05T17:18:35.081Z,38.44
2018-09-05T17:21:04.386Z,38.56
2018-09-05T17:23:31.081Z,38.57
2018-09-05T17:25:58.269Z,38.53
2018-09-05T17:28:24.947Z,38.55
2018-09-05T17:30:51.546Z,38.62
2018-09-05T17:33:18.233Z,38.78
2018-09-05T17:35:44.838Z,38.71
2018-09-05T17:38:11.490Z,38.77
2018-09-05T17:40:38.125Z,38.74
2018-09-05T17:43:05.147Z,38.77
2018-09-05T17:45:31.781Z,38.86
2018-09-05T17:47:58.445Z,38.89
2018-09-05T17:50:25.063Z,38.90
2018-09-05T17:52:51.727Z,38.98
2018-09-05T17:55:18.361Z,38.96
2018-09-05T17:57:45.011Z,38.99
2018-09-05T18:00:13.089Z,38.94
2018-09-05T18:02:38.397Z,38.95
2018-09-05T18:05:05.067Z,39.01
2018-09-05T18:07:31.791Z,39.02
2018-09-05T18:09:58.519Z,39.07
2018-09-05T18:12:25.092Z,39.08
2018-09-05T18:14:51.878Z,39.14
2018-09-05T18:17:18.488Z,39.24
2018-09-05T18:19:45.209Z,39.16
2018-09-05T18:22:11.893Z,39.23
2018-09-05T18:24:38.511Z,39.29
2018-09-05T18:27:05.207Z,39.23
2018-09-05T18:29:31.892Z,39.33
2018-09-05T18:32:01.336Z,39.25
2018-09-05T18:34:28.142Z,39.37
2018-09-05T18:36:54.756Z,39.45
2018-09-05T18:39:21.653Z,39.44
2018-09-05T18:41:48.298Z,39.39
2018-09-05T18:44:14.970Z,39.46
2018-09-05T18:46:41.705Z,39.46
2018-09-05T18:49:10.489Z,39.38
2018-09-05T18:51:34.952Z,39.40
2018-09-05T18:54:03.815Z,39.40
2018-09-05T18:56:28.665Z,39.49
2018-09-05T18:58:55.312Z,39.46
2018-09-05T19:01:21.962Z,39.48
2018-09-05T19:03:48.653Z,39.42
2018-09-05T19:06:18.325Z,39.46
2018-09-05T19:08:45.071Z,39.38
2018-09-05T19:11:11.711Z,39.35
2018-09-05T19:13:38.357Z,39.43
2018-09-05T19:16:04.994Z,39.40
2018-09-05T19:18:31.708Z,39.39
2018-09-05T19:20:59.677Z,39.31
2018-09-05T19:23:25.982Z,39.38
2018-09-05T19:25:52.627Z,39.35
2018-09-05T19:28:19.276Z,39.37
2018-09-05T19:30:45.908Z,39.37
2018-09-05T19:33:12.548Z,39.35
2018-09-05T19:35:39.282Z,39.48
2018-09-05T19:38:05.845Z,39.48
2018-09-05T19:40:32.543Z,39.59
2018-09-05T19:42:59.225Z,39.50
2018-09-05T19:45:28.870Z,39.52
2018-09-05T19:47:55.505Z,39.69
2018-09-05T19:50:22.331Z,39.70
2018-09-05T19:52:48.902Z,39.71
2018-09-05T19:55:15.543Z,39.73
2018-09-05T19:57:44.389Z,39.80
2018-09-05T20:00:08.935Z,39.79
2018-09-05T20:02:35.584Z,39.84
2018-09-05T20:05:02.240Z,39.98
2018-09-05T20:07:28.922Z,39.98
2018-09-05T20:09:55.567Z,40.08
2018-09-05T20:12:22.210Z,40.15
2018-09-05T20:14:48.859Z,40.08
2018-09-05T20:17:15.656Z,40.18
2018-09-05T20:19:42.265Z,40.22
2018-09-05T20:22:08.988Z,40.26
2018-09-05T20:24:35.634Z,40.38
2018-09-05T20:27:02.362Z,40.33
2018-09-05T20:29:29.005Z,40.48
2018-09-05T20:31:55.662Z,40.45
2018-09-05T20:34:22.344Z,40.44
2018-09-05T20:36:48.980Z,40.63
2018-09-05T20:39:15.647Z,40.67
2018-09-05T20:41:42.347Z,40.67
2018-09-05T20:44:09.015Z,40.73
2018-09-05T20:46:35.651Z,40.71
2018-09-05T20:49:02.327Z,40.86
2018-09-05T20:51:28.931Z,40.81
2018-09-05T20:53:55.572Z,40.83
2018-09-05T20:56:22.303Z,40.91
2018-09-05T20:58:48.975Z,41.04
2018-09-05T21:01:15.576Z,40.94
2018-09-05T21:03:42.218Z,40.99
2018-09-05T21:06:08.908Z,41.03
2018-09-05T21:08:35.559Z,41.07
2018-09-05T21:11:02.182Z,41.10
2018-09-05T21:13:28.842Z,41.12
2018-09-05T21:15:55.602Z,41.18
2018-09-05T21:18:22.244Z,41.19
2018-09-05T21:20:48.878Z,41.12
2018-09-05T21:23:15.518Z,41.25
2018-09-05T21:25:42.165Z,41.25
2018-09-05T21:28:08.834Z,41.35
2018-09-05T21:30:35.533Z,41.34
2018-09-05T21:33:02.166Z,41.36
2018-09-05T21:35:28.809Z,41.34
2018-09-05T21:37:55.546Z,41.37
2018-09-05T21:40:22.189Z,41.49
2018-09-05T21:42:48.876Z,41.48
2018-09-05T21:45:15.591Z,41.39
2018-09-05T21:47:42.237Z,41.41
2018-09-05T21:50:08.936Z,41.49
2018-09-05T21:52:35.585Z,41.44
2018-09-05T21:55:02.240Z,41.48
2018-09-05T21:57:28.908Z,41.53
2018-09-05T21:59:55.837Z,41.55
2018-09-05T22:02:22.531Z,41.44
2018-09-05T22:04:49.211Z,41.58
2018-09-05T22:07:17.276Z,41.44
2018-09-05T22:09:45.623Z,41.48
2018-09-05T22:12:12.265Z,41.46
2018-09-05T22:14:42.108Z,41.49
2018-09-05T22:17:11.050Z,41.56
2018-09-05T22:19:37.682Z,41.43
2018-09-05T22:22:04.363Z,41.47
2018-09-05T22:24:31.049Z,41.50
2018-09-05T22:26:57.693Z,41.46
2018-09-05T22:29:24.376Z,41.49
2018-09-05T22:31:51.011Z,41.50
2018-09-05T22:34:17.648Z,41.49
2018-09-05T22:36:47.525Z,41.49
2018-09-05T22:39:14.180Z,41.43
2018-09-05T22:41:40.827Z,41.43
2018-09-05T22:44:07.462Z,41.50
2018-09-05T22:46:34.195Z,41.48
2018-09-05T22:49:03.566Z,41.51
2018-09-05T22:51:30.229Z,41.52
2018-09-05T22:53:56.876Z,41.50
2018-09-05T22:56:23.567Z,41.42
2018-09-05T22:58:50.272Z,41.50
2018-09-05T23:01:16.994Z,41.50
2018-09-05T23:03:43.671Z,41.51
2018-09-05T23:06:10.439Z,41.47
2018-09-05T23:08:37.180Z,41.42
2018-09-05T23:11:05.770Z,41.48
2018-09-05T23:13:30.568Z,41.53
2018-09-05T23:15:57.232Z,41.42
2018-09-05T23:18:23.842Z,41.47
2018-09-05T23:20:50.606Z,41.46
2018-09-05T23:23:17.243Z,41.51
2018-09-05T23:25:43.937Z,41.44
2018-09-05T23:28:10.571Z,41.40
2018-09-05T23:30:37.213Z,41.49
2018-09-05T23:33:03.894Z,41.47
2018-09-05T23:35:30.544Z,41.52
2018-09-05T23:37:57.345Z,41.49
2018-09-05T23:40:24.036Z,41.53
2018-09-05T23:42:50.743Z,41.56
2018-09-05T23:45:17.389Z,41.56
2018-09-05T23:47:44.049Z,41.47
2018-09-05T23:50:10.770Z,41.46
2018-09-05T23:52:37.907Z,41.62
2018-09-05T23:55:04.700Z,41.58
2018-09-05T23:57:31.396Z,41.57
2018-09-05T23:59:58.093Z,41.60
